Elmsford, NY (10523)

11:49 PM EDT on August 31, 2016 (GMT -0400)
Tarryhill | | Change Station

Elev 323 ft 41.05 °N, 73.85 °W | Updated 9 minutes ago

Partly Cloudy
Partly Cloudy
76.2 °F
Feels Like 77 °F
N
1.0
Wind Variable Wind from SSW
Gusts 4.0 mph

Today
High -- | Low -- °F
--% Chance of Precip.
Yesterday
High -- | Low -- °F
Precip. -- in
Pressure 29.87 in
Visibility 10.0 miles
Clouds Few 6500 ft
Heat Index 77 °F
Dew Point 68 °F
Humidity 77%
Rainfall 0.00 in
Snow Depth Not available.
6:21 AM 7:28 PM
Waning Crescent, 0% visible
METAR KHPN 010256Z 16003KT 10SM FEW065 24/19 A2989 RMK AO2 SLP115 T02390194 58001
Pressure 29.87 in
Visibility 10.0 miles
Clouds Few 6500 ft
Heat Index 77 °F
Dew Point 68 °F
Humidity 77%
Rainfall 0.00 in
Snow Depth Not available.
6:21 AM 7:28 PM
Waning Crescent, 0% visible
METAR KHPN 010256Z 16003KT 10SM FEW065 24/19 A2989 RMK AO2 SLP115 T02390194 58001

10-Day Weather Forecast

Almanac

Astronomy

Aug. 31, 2016 Rise Set
Actual Time
Civil Twilight
Nautical Twilight
Astronomical Twilight
Moon
Length of Visible Light
Length of Day
Tomorrow will be .
, % of the Moon is Illuminated

Today's Extremes

State Highs State Lows

Community

WunderPhotos

Upload Photos

1,936,291 photos uploaded!

WunderBlog® & News

Nearby

Air Quality

  Air Quality AQ Index Pollutant
Not available.

Snow Depth

Station Depth Elevation

Earthquake Activity

City Distance Mag. Time & Date
Minimum magnitude displayed is 2.5.

Coastal Water Temperatures

Place Temperature

Stations

Nearby Weather Stations

Station Location Temp. Windchill Dew Point Humidity Wind Precip. Elev Updated Type
                   

Watches & Warnings

There are currently no watches in effect.